createdAt,value
2023-01-30T00:01:05.084Z,66.45
2023-01-30T00:06:01.494Z,50.65
2023-01-30T00:11:03.007Z,62.88
2023-01-30T00:15:59.641Z,61.05
2023-01-30T00:21:00.859Z,64.85
2023-01-30T00:25:57.591Z,61.65
2023-01-30T00:30:55.879Z,62.20
2023-01-30T00:35:54.096Z,67.10
2023-01-30T00:40:50.729Z,65.68
2023-01-30T00:46:07.061Z,62.60
2023-01-30T00:51:03.752Z,59.10
2023-01-30T00:56:00.317Z,60.53
2023-01-30T01:00:56.792Z,63.83
2023-01-30T01:05:53.174Z,64.63
2023-01-30T01:10:50.096Z,59.53
2023-01-30T01:15:46.474Z,60.60
2023-01-30T01:20:42.860Z,55.95
2023-01-30T01:25:39.282Z,60.13
2023-01-30T01:30:35.670Z,61.33
2023-01-30T01:35:32.099Z,52.53
2023-01-30T01:40:47.136Z,65.63
2023-01-30T01:45:45.378Z,60.88
2023-01-30T01:51:02.351Z,45.20
2023-01-30T01:56:01.598Z,61.15
2023-01-30T02:00:59.803Z,52.85
2023-01-30T02:06:00.922Z,53.15
2023-01-30T02:11:25.707Z,53.10
2023-01-30T02:16:22.090Z,52.50
2023-01-30T02:21:43.015Z,50.70
2023-01-30T02:27:03.946Z,54.70
2023-01-30T02:32:33.360Z,44.63
2023-01-30T02:37:57.918Z,55.15
2023-01-30T02:43:20.578Z,55.35
2023-01-30T02:48:34.922Z,49.30
2023-01-30T02:53:34.779Z,50.72
2023-01-30T02:58:38.319Z,49.78
2023-01-30T03:03:53.348Z,40.10
2023-01-30T03:09:06.256Z,46.10
2023-01-30T03:14:11.905Z,41.97
2023-01-30T03:19:13.446Z,36.38
2023-01-30T03:24:10.000Z,46.00
2023-01-30T03:29:06.645Z,36.75
2023-01-30T03:34:03.094Z,31.88
2023-01-30T03:38:59.555Z,34.03
2023-01-30T03:43:56.004Z,37.10
2023-01-30T03:48:52.440Z,35.40
2023-01-30T03:53:48.869Z,33.03
2023-01-30T03:58:45.369Z,32.60
2023-01-30T04:03:41.802Z,30.60
2023-01-30T04:08:38.235Z,32.53
2023-01-30T04:13:34.687Z,30.55
2023-01-30T04:18:31.109Z,26.98
2023-01-30T04:23:27.522Z,29.55
2023-01-30T04:28:23.953Z,22.27
2023-01-30T04:33:20.579Z,21.73
2023-01-30T04:38:17.030Z,22.40
2023-01-30T04:43:13.613Z,23.17
2023-01-30T04:48:10.176Z,23.27
2023-01-30T04:53:06.616Z,23.75
2023-01-30T04:58:03.273Z,25.02
2023-01-30T05:02:59.659Z,24.75
2023-01-30T05:07:56.093Z,24.67
2023-01-30T05:12:52.465Z,24.48
2023-01-30T05:17:48.885Z,26.33
2023-01-30T05:22:45.269Z,27.92
2023-01-30T05:27:42.028Z,26.17
2023-01-30T05:32:38.475Z,27.40
2023-01-30T05:37:34.901Z,27.00
2023-01-30T05:42:31.320Z,28.42
2023-01-30T05:47:27.749Z,29.00
2023-01-30T05:52:24.155Z,33.67
2023-01-30T05:57:20.524Z,35.55
2023-01-30T06:02:16.996Z,28.23
2023-01-30T06:07:14.379Z,32.53
2023-01-30T06:12:10.809Z,32.90
2023-01-30T06:17:07.339Z,32.42
2023-01-30T06:22:03.728Z,32.55
2023-01-30T06:27:00.140Z,31.63
2023-01-30T06:31:56.659Z,30.60
2023-01-30T06:36:53.045Z,30.48
2023-01-30T06:41:49.621Z,33.85
2023-01-30T06:46:46.048Z,33.28
2023-01-30T06:51:42.482Z,32.17
2023-01-30T06:56:38.924Z,32.17
2023-01-30T07:01:35.653Z,31.48
2023-01-30T07:06:32.252Z,30.80
2023-01-30T07:11:28.672Z,31.08
2023-01-30T07:16:29.171Z,32.58
2023-01-30T07:21:27.243Z,29.92
2023-01-30T07:26:24.752Z,27.30
2023-01-30T07:31:21.285Z,33.85
2023-01-30T07:36:17.687Z,30.08
2023-01-30T07:41:14.141Z,29.98
2023-01-30T07:46:10.578Z,28.83
2023-01-30T07:51:07.020Z,25.35
2023-01-30T07:56:10.361Z,36.20
2023-01-30T08:01:06.854Z,27.42
2023-01-30T08:06:03.320Z,32.78
2023-01-30T08:10:59.747Z,33.15
2023-01-30T08:16:00.118Z,34.60
2023-01-30T08:21:05.579Z,35.80
2023-01-30T08:26:04.111Z,36.25
2023-01-30T08:31:00.602Z,37.83
2023-01-30T08:35:57.466Z,43.60
2023-01-30T08:40:53.845Z,38.28
2023-01-30T08:45:53.551Z,42.00
2023-01-30T08:50:53.982Z,37.20
2023-01-30T08:55:53.743Z,23.80
2023-01-30T09:00:50.466Z,35.08
2023-01-30T09:05:47.112Z,41.55
2023-01-30T09:10:43.547Z,42.03
2023-01-30T09:15:44.279Z,36.95
2023-01-30T09:20:40.698Z,25.00
2023-01-30T09:25:37.645Z,30.98
2023-01-30T09:30:34.354Z,31.35
2023-01-30T09:35:30.792Z,32.53
2023-01-30T09:40:31.256Z,36.13
2023-01-30T09:46:00.165Z,33.00
2023-01-30T09:51:17.775Z,41.78
2023-01-30T09:56:14.242Z,36.70
2023-01-30T10:01:21.638Z,24.40
2023-01-30T10:06:18.104Z,33.75
2023-01-30T10:11:40.774Z,22.13
2023-01-30T10:16:40.029Z,38.23
2023-01-30T10:21:50.512Z,27.58
2023-01-30T10:26:47.711Z,27.55
2023-01-30T10:31:49.587Z,21.92
2023-01-30T10:36:57.137Z,21.35
2023-01-30T10:42:10.223Z,19.27
2023-01-30T10:47:46.588Z,18.50
2023-01-30T10:53:27.379Z,18.63
2023-01-30T10:58:38.137Z,32.15
2023-01-30T11:03:41.367Z,21.73
2023-01-30T11:08:37.816Z,19.73
2023-01-30T11:13:34.360Z,16.55
2023-01-30T11:23:48.056Z,16.50
2023-01-30T11:28:48.670Z,16.15
2023-01-30T11:33:45.872Z,16.67
2023-01-30T11:38:56.773Z,15.57
2023-01-30T11:44:03.326Z,18.15
2023-01-30T11:49:46.522Z,22.20
2023-01-30T11:54:29.727Z,17.52
2023-01-30T11:59:38.979Z,15.65
2023-01-30T12:04:35.571Z,16.13
2023-01-30T12:09:39.954Z,14.32
2023-01-30T12:14:44.410Z,17.73
2023-01-30T12:20:12.724Z,18.38
2023-01-30T12:25:41.352Z,21.67
2023-01-30T12:30:47.166Z,17.42
2023-01-30T12:35:56.752Z,19.48
2023-01-30T12:41:06.368Z,17.83
2023-01-30T12:46:07.202Z,19.10
2023-01-30T12:51:12.574Z,19.50
2023-01-30T12:56:42.255Z,20.00
2023-01-30T13:02:15.280Z,19.25
2023-01-30T13:07:33.093Z,20.73
2023-01-30T13:13:03.203Z,34.20
2023-01-30T13:18:16.093Z,31.63
2023-01-30T13:23:25.220Z,32.42
2023-01-30T13:28:28.878Z,19.17
2023-01-30T13:33:39.180Z,41.92
2023-01-30T13:38:40.678Z,38.10
2023-01-30T13:43:42.573Z,25.45
2023-01-30T13:49:03.800Z,40.97
2023-01-30T13:54:11.117Z,27.98
2023-01-30T13:59:34.128Z,31.60
2023-01-30T14:04:30.453Z,33.45
2023-01-30T14:09:29.986Z,39.97
2023-01-30T14:14:29.598Z,38.78
2023-01-30T14:19:40.480Z,36.22
2023-01-30T14:24:36.913Z,33.35
2023-01-30T14:29:54.178Z,27.80
2023-01-30T14:35:10.809Z,29.75
2023-01-30T14:40:37.857Z,30.42
2023-01-30T14:45:50.736Z,38.08
2023-01-30T14:50:47.922Z,29.50
2023-01-30T14:55:44.397Z,33.33
2023-01-30T15:00:40.926Z,29.63
2023-01-30T15:05:43.205Z,34.00
2023-01-30T15:11:05.331Z,29.67
2023-01-30T15:16:04.652Z,30.30
2023-01-30T15:21:23.812Z,30.20
2023-01-30T15:26:58.820Z,28.40
2023-01-30T15:31:59.151Z,30.58
2023-01-30T15:36:55.636Z,21.85
2023-01-30T15:41:56.969Z,28.65
2023-01-30T15:47:11.934Z,32.45
2023-01-30T15:52:14.538Z,28.67
2023-01-30T16:02:16.406Z,36.33
2023-01-30T16:07:22.867Z,37.25
2023-01-30T16:12:29.633Z,37.70
2023-01-30T16:17:29.897Z,26.40
2023-01-30T16:22:32.757Z,31.95
2023-01-30T16:27:35.179Z,32.65
2023-01-30T16:32:33.551Z,32.58
2023-01-30T16:37:31.737Z,45.35
2023-01-30T16:42:29.267Z,27.20
2023-01-30T16:47:28.245Z,31.92
2023-01-30T16:52:24.744Z,39.28
2023-01-30T16:57:35.786Z,31.92
2023-01-30T17:02:39.586Z,38.85
2023-01-30T17:07:37.956Z,33.90
2023-01-30T17:12:42.386Z,35.22
2023-01-30T17:17:42.053Z,34.80
2023-01-30T17:22:41.686Z,28.92
2023-01-30T17:27:38.181Z,25.83
2023-01-30T17:32:34.614Z,24.02
2023-01-30T17:37:31.066Z,24.77
2023-01-30T17:42:27.473Z,23.42
2023-01-30T17:47:23.873Z,39.97
2023-01-30T17:52:21.375Z,23.45
2023-01-30T17:57:17.827Z,16.08
2023-01-30T18:02:14.251Z,22.85
2023-01-30T18:07:14.104Z,17.73
2023-01-30T18:12:10.572Z,24.73
2023-01-30T18:17:07.071Z,16.27
2023-01-30T18:22:03.469Z,19.20
2023-01-30T18:27:01.815Z,24.60
2023-01-30T18:32:04.821Z,24.90
2023-01-30T18:37:01.196Z,28.10
2023-01-30T18:41:57.650Z,30.45
2023-01-30T18:46:54.049Z,33.65
2023-01-30T18:51:50.548Z,28.50
2023-01-30T18:56:46.980Z,26.60
2023-01-30T19:01:43.457Z,35.33
2023-01-30T19:06:43.223Z,40.78
2023-01-30T19:11:58.267Z,26.90
2023-01-30T19:16:54.699Z,32.33
2023-01-30T19:21:52.140Z,18.88
2023-01-30T19:26:48.796Z,25.55
2023-01-30T19:31:47.094Z,24.67
2023-01-30T19:36:43.761Z,24.73
2023-01-30T19:41:40.186Z,47.10
2023-01-30T19:46:36.673Z,22.17
2023-01-30T19:51:34.586Z,25.83
2023-01-30T19:56:31.836Z,23.23
2023-01-30T20:01:32.544Z,25.60
2023-01-30T20:06:31.639Z,30.83
2023-01-30T20:11:29.310Z,21.85
2023-01-30T20:16:27.541Z,36.95
2023-01-30T20:21:24.989Z,27.52
2023-01-30T20:26:23.586Z,22.13
2023-01-30T20:31:22.856Z,28.90
2023-01-30T20:36:20.209Z,25.92
2023-01-30T20:41:21.304Z,20.48
2023-01-30T20:46:20.611Z,29.80
2023-01-30T20:51:24.252Z,27.35
2023-01-30T20:56:21.921Z,21.88
2023-01-30T21:01:21.332Z,17.42
2023-01-30T21:06:41.886Z,24.33
2023-01-30T21:11:36.237Z,22.67
2023-01-30T21:16:34.010Z,29.98
2023-01-30T21:21:37.068Z,19.48
2023-01-30T21:26:35.947Z,22.33
2023-01-30T21:31:34.337Z,21.73
2023-01-30T21:36:30.917Z,25.05
2023-01-30T21:41:50.433Z,14.85
2023-01-30T21:46:48.173Z,15.57
2023-01-30T21:51:46.775Z,19.83
2023-01-30T21:56:43.720Z,20.75
2023-01-30T22:01:41.717Z,20.52
2023-01-30T22:06:38.977Z,20.30
2023-01-30T22:11:36.671Z,18.48
2023-01-30T22:16:33.846Z,17.15
2023-01-30T22:21:34.209Z,21.13
2023-01-30T22:26:31.097Z,18.48
2023-01-30T22:31:34.180Z,18.13
2023-01-30T22:36:33.719Z,18.63
2023-01-30T22:41:35.181Z,25.42
2023-01-30T22:46:34.302Z,13.25
2023-01-30T22:51:33.451Z,15.57
2023-01-30T22:56:35.914Z,14.48
2023-01-30T23:06:31.329Z,16.40
2023-01-30T23:11:36.939Z,22.35
2023-01-30T23:16:35.846Z,11.57
2023-01-30T23:21:37.960Z,23.80
2023-01-30T23:26:38.453Z,19.50
2023-01-30T23:31:36.646Z,19.08
2023-01-30T23:36:34.187Z,24.00
2023-01-30T23:41:32.540Z,17.15
2023-01-30T23:46:32.043Z,16.58
2023-01-30T23:51:30.746Z,26.00
2023-01-30T23:56:29.459Z,17.80
